Time;durP1;ratioP1;P1;durP2;ratioP2;P2;SDS_P1;SDS_P2;PMS_P1;PMS_P2;Temp;Humidity;BMP_temperature;BMP_pressure;BME280_temperature;BME280_humidity;BME280_pressure;Samples;Min_cycle;Max_cycle;Signal;HPM_P1;HPM_P2
2022/10/06 00:01:08;;;;;;;;;;;;;;;7.73;84.92;100992.38;4993062;28;1939;-70
2022/10/06 00:03:37;;;;;;;;;;;;;;;7.69;85.62;100994.25;4993152;28;819;-69
2022/10/06 00:06:04;;;;;;;;;;;;;;;7.68;85.79;100987.94;4993136;28;831;-69
2022/10/06 00:08:32;;;;;;;;;;;;;;;7.66;85.32;100986.69;4991729;28;1548;-70
2022/10/06 00:10:59;;;;;;;;;;;;;;;7.61;85.94;100984.22;4991784;28;1286;-70
2022/10/06 00:13:26;;;;;;;;;;;;;;;7.55;86.59;100987.22;4993125;28;803;-69
2022/10/06 00:15:53;;;;;;;;;;;;;;;7.56;86.25;100982.50;4993418;28;771;-69
2022/10/06 00:18:20;;;;;;;;;;;;;;;7.54;86.24;100982.06;4991866;28;1307;-69
2022/10/06 00:20:54;;;;;;;;;;;;;;;7.53;86.20;100978.53;4992766;28;1898;-69
2022/10/06 00:23:20;;;;;;;;;;;;;;;7.52;87.30;100968.66;4992834;28;811;-69
2022/10/06 00:25:47;;;;;;;;;;;;;;;7.56;87.38;100975.06;4992901;28;870;-70
2022/10/06 00:28:15;;;;;;;;;;;;;;;7.60;87.63;100974.38;4992753;28;870;-72
2022/10/06 00:30:42;;;;;;;;;;;;;;;7.59;87.80;100970.00;4991345;28;1172;-72
2022/10/06 00:33:16;;;;;;;;;;;;;;;7.59;87.66;100961.75;4991270;28;1365;-69
2022/10/06 00:35:43;;;;;;;;;;;;;;;7.54;87.29;100966.34;4992648;28;799;-71
2022/10/06 00:38:11;;;;;;;;;;;;;;;7.47;87.40;100957.94;4991711;28;1314;-72
2022/10/06 00:40:50;;;;;;;;;;;;;;;7.40;87.13;100959.69;4992513;28;1971;-69
2022/10/06 00:43:37;;;;;;;;;;;;;;;7.33;87.68;100952.84;4992417;28;1276;-70
2022/10/06 00:46:04;;;;;;;;;;;;;;;7.29;88.02;100956.66;4992608;28;850;-70
2022/10/06 00:48:31;;;;;;;;;;;;;;;7.29;87.93;100960.19;4992473;28;823;-71
2022/10/06 00:50:58;;;;;;;;;;;;;;;7.27;88.34;100956.19;4992430;28;803;-70
2022/10/06 00:53:28;;;;;;;;;;;;;;;7.24;88.43;100954.16;4992496;28;902;-70
2022/10/06 00:55:56;;;;;;;;;;;;;;;7.23;89.37;100950.59;4992426;28;834;-70
2022/10/06 00:58:23;;;;;;;;;;;;;;;7.24;89.27;100952.19;4992436;28;917;-72
2022/10/06 01:00:55;;;;;;;;;;;;;;;7.24;89.75;100943.97;4992305;28;1981;-70
2022/10/06 01:03:33;;;;;;;;;;;;;;;7.26;89.68;100947.16;4990999;28;1122;-71
2022/10/06 01:06:01;;;;;;;;;;;;;;;7.26;89.62;100949.13;4992646;28;909;-72
2022/10/06 01:08:28;;;;;;;;;;;;;;;7.26;90.45;100940.88;4992315;28;965;-70
2022/10/06 01:10:55;;;;;;;;;;;;;;;7.24;90.33;100938.47;4991019;28;1308;-70
2022/10/06 01:13:22;;;;;;;;;;;;;;;7.22;90.90;100945.47;4992159;28;862;-70
2022/10/06 01:16:03;;;;;;;;;;;;;;;7.20;90.55;100939.50;4992294;28;877;-70
2022/10/06 01:18:31;;;;;;;;;;;;;;;7.17;91.60;100935.53;4992231;28;835;-71
2022/10/06 01:21:30;;;;;;;;;;;;;;;7.18;91.42;100939.84;4992330;28;1890;-71
2022/10/06 01:23:57;;;;;;;;;;;;;;;7.16;91.24;100931.94;4916235;29;1241;-70
2022/10/06 01:26:25;;;;;;;;;;;;;;;7.16;91.72;100931.94;4935085;29;957;-70
2022/10/06 01:28:52;;;;;;;;;;;;;;;7.15;91.00;100935.88;4936243;29;823;-70
2022/10/06 01:31:19;;;;;;;;;;;;;;;7.16;91.21;100931.94;4920012;29;1385;-70
2022/10/06 01:33:51;;;;;;;;;;;;;;;7.21;91.64;100941.94;4935801;29;1273;-70
2022/10/06 01:36:18;;;;;;;;;;;;;;;7.22;90.96;100929.75;4936190;29;891;-69
2022/10/06 01:38:45;;;;;;;;;;;;;;;7.30;91.20;100928.00;4935881;29;874;-70
2022/10/06 01:41:12;;;;;;;;;;;;;;;7.30;91.33;100933.50;4935636;29;1983;-71
2022/10/06 01:43:39;;;;;;;;;;;;;;;7.26;91.22;100929.88;4935814;29;850;-69
2022/10/06 01:46:06;;;;;;;;;;;;;;;7.20;90.26;100940.31;4935964;29;934;-70
2022/10/06 01:48:35;;;;;;;;;;;;;;;7.21;91.23;100927.34;4919790;29;1240;-73
2022/10/06 01:51:02;;;;;;;;;;;;;;;7.19;90.02;100921.41;4919915;29;1258;-72
2022/10/06 01:53:29;;;;;;;;;;;;;;;7.12;90.52;100925.56;4935573;29;907;-70
2022/10/06 01:55:59;;;;;;;;;;;;;;;7.07;90.53;100931.31;4935693;29;800;-70
2022/10/06 01:58:26;;;;;;;;;;;;;;;7.01;90.98;100924.47;4923395;28;1210;-70
2022/10/06 02:00:54;;;;;;;;;;;;;;;6.97;91.54;100925.53;4994486;28;1945;-71
2022/10/06 02:03:21;;;;;;;;;;;;;;;6.94;90.79;100930.56;4995746;28;870;-70
2022/10/06 02:05:48;;;;;;;;;;;;;;;6.91;91.31;100923.03;4995855;28;787;-72
2022/10/06 02:08:15;;;;;;;;;;;;;;;6.91;91.94;100923.03;4994452;28;898;-70
2022/10/06 02:10:42;;;;;;;;;;;;;;;6.88;91.00;100926.47;4995455;28;858;-68
2022/10/06 02:13:10;;;;;;;;;;;;;;;6.88;91.75;100928.44;4995664;28;907;-71
2022/10/06 02:15:37;;;;;;;;;;;;;;;6.88;92.14;100928.44;4994108;28;1196;-71
2022/10/06 02:18:03;;;;;;;;;;;;;;;6.86;92.08;100928.78;4995684;28;830;-73
2022/10/06 02:20:30;;;;;;;;;;;;;;;6.85;92.33;100935.44;4994111;28;1291;-69
2022/10/06 02:22:57;;;;;;;;;;;;;;;6.82;91.66;100933.38;4995477;28;1886;-71
2022/10/06 02:25:26;;;;;;;;;;;;;;;6.81;91.90;100936.50;4995375;28;859;-73
2022/10/06 02:27:53;;;;;;;;;;;;;;;6.83;91.70;100931.41;4995114;28;905;-74
2022/10/06 02:30:21;;;;;;;;;;;;;;;6.80;92.17;100923.88;4995108;28;865;-71
2022/10/06 02:32:48;;;;;;;;;;;;;;;6.80;91.88;100923.88;4994910;28;1264;-71
2022/10/06 02:35:15;;;;;;;;;;;;;;;6.83;92.68;100917.69;4994963;28;822;-71
2022/10/06 02:37:42;;;;;;;;;;;;;;;6.82;92.56;100922.38;4993657;28;830;-71
2022/10/06 02:40:09;;;;;;;;;;;;;;;6.79;92.78;100922.28;4994807;28;979;-71
2022/10/06 02:42:36;;;;;;;;;;;;;;;6.74;93.21;100920.56;4994835;28;1903;-74
2022/10/06 02:45:05;;;;;;;;;;;;;;;6.74;93.43;100924.13;4994792;28;811;-70
2022/10/06 02:47:33;;;;;;;;;;;;;;;6.73;93.50;100917.03;5009753;28;1243;-71
2022/10/06 02:50:00;;;;;;;;;;;;;;;6.73;92.79;100919.78;4994869;28;846;-74
2022/10/06 02:52:35;;;;;;;;;;;;;;;6.70;93.35;100916.91;4994518;28;822;-72
2022/10/06 02:55:03;;;;;;;;;;;;;;;6.70;93.45;100920.50;4994493;28;890;-72
2022/10/06 02:57:30;;;;;;;;;;;;;;;6.74;94.17;100924.13;4994755;28;811;-74
2022/10/06 02:59:58;;;;;;;;;;;;;;;6.75;93.36;100916.69;4993158;28;876;-70
2022/10/06 03:02:25;;;;;;;;;;;;;;;6.74;92.92;100915.91;4994371;28;1871;-71
2022/10/06 03:04:51;;;;;;;;;;;;;;;6.74;93.57;100913.16;4994373;28;875;-72
2022/10/06 03:07:18;;;;;;;;;;;;;;;6.75;93.80;100905.69;4994340;28;858;-71
2022/10/06 03:09:45;;;;;;;;;;;;;;;6.78;93.63;100901.44;4992855;28;1643;-71
2022/10/06 03:12:13;;;;;;;;;;;;;;;6.83;93.73;100909.44;4994526;28;864;-71
2022/10/06 03:14:39;;;;;;;;;;;;;;;6.86;93.75;100917.78;4994190;28;878;-72
2022/10/06 03:17:10;;;;;;;;;;;;;;;6.87;93.46;100907.59;4994195;28;842;-74
2022/10/06 03:19:37;;;;;;;;;;;;;;;6.86;93.60;100911.50;4994184;28;831;-73
2022/10/06 03:22:05;;;;;;;;;;;;;;;6.85;93.70;100905.19;4993916;28;1939;-72
2022/10/06 03:24:32;;;;;;;;;;;;;;;6.86;93.61;100908.75;4992841;28;1272;-71
2022/10/06 03:26:59;;;;;;;;;;;;;;;6.86;93.23;100903.25;4992621;28;1454;-70
2022/10/06 03:29:29;;;;;;;;;;;;;;;6.86;93.35;100903.25;4992721;28;1210;-70
2022/10/06 03:31:57;;;;;;;;;;;;;;;6.84;93.42;100903.59;4992512;28;1283;-71
2022/10/06 03:34:24;;;;;;;;;;;;;;;6.84;93.53;100905.53;4992333;28;1334;-70
2022/10/06 03:36:51;;;;;;;;;;;;;;;6.84;93.84;100906.34;4992591;28;2204;-69
2022/10/06 03:39:18;;;;;;;;;;;;;;;6.84;93.08;100913.78;4993568;28;866;-70
2022/10/06 03:41:45;;;;;;;;;;;;;;;6.80;93.85;100905.44;4992225;28;1989;-70
2022/10/06 03:44:12;;;;;;;;;;;;;;;6.76;93.56;100907.28;4993812;28;887;-73
2022/10/06 03:46:38;;;;;;;;;;;;;;;6.72;93.13;100911.88;4992309;28;1443;-71
2022/10/06 03:49:05;;;;;;;;;;;;;;;6.69;93.16;100907.88;4993188;28;799;-70
2022/10/06 03:51:36;;;;;;;;;;;;;;;6.68;92.83;100906.31;4993550;28;830;-69
2022/10/06 03:54:03;;;;;;;;;;;;;;;6.66;93.16;100907.81;4993570;28;826;-72
2022/10/06 03:56:35;;;;;;;;;;;;;;;6.66;93.37;100911.34;4993371;28;807;-70
2022/10/06 03:59:04;;;;;;;;;;;;;;;6.72;92.91;100915.44;4993437;28;839;-71
2022/10/06 04:01:35;;;;;;;;;;;;;;;6.74;93.29;100913.16;4993352;28;1939;-71
2022/10/06 04:04:03;;;;;;;;;;;;;;;6.78;92.89;100915.19;4993247;28;881;-71
2022/10/06 04:06:31;;;;;;;;;;;;;;;6.73;92.36;100919.00;4991875;28;1369;-70
2022/10/06 04:08:58;;;;;;;;;;;;;;;6.70;92.78;100919.66;4992919;28;874;-70
2022/10/06 04:11:27;;;;;;;;;;;;;;;6.68;93.01;100916.50;4993161;28;857;-70
2022/10/06 04:13:59;;;;;;;;;;;;;;;6.69;92.88;100920.84;4993414;28;791;-70
2022/10/06 04:16:27;;;;;;;;;;;;;;;6.72;92.75;100920.94;4993058;28;897;-69
2022/10/06 04:18:58;;;;;;;;;;;;;;;6.71;92.96;100916.59;4991640;28;894;-70
2022/10/06 04:21:25;;;;;;;;;;;;;;;6.72;92.52;100920.94;4992813;28;1890;-69
2022/10/06 04:23:53;;;;;;;;;;;;;;;6.71;91.84;100911.09;4992817;28;799;-70
2022/10/06 04:26:20;;;;;;;;;;;;;;;6.72;91.75;100918.19;4993091;28;838;-69
2022/10/06 04:28:47;;;;;;;;;;;;;;;6.75;91.85;100917.47;4992788;28;795;-70
2022/10/06 04:31:21;;;;;;;;;;;;;;;6.80;92.06;100919.19;4992703;28;955;-69
2022/10/06 04:33:49;;;;;;;;;;;;;;;6.83;91.70;100913.00;4992469;28;1432;-70
2022/10/06 04:36:21;;;;;;;;;;;;;;;6.83;91.71;100909.44;4991310;28;1239;-70
2022/10/06 04:38:48;;;;;;;;;;;;;;;6.83;92.21;100910.25;4992620;28;897;-71
2022/10/06 04:41:16;;;;;;;;;;;;;;;6.89;91.33;100910.78;4992516;28;1918;-69
2022/10/06 04:43:45;;;;;;;;;;;;;;;6.96;91.35;100905.50;4992586;28;795;-71
2022/10/06 04:46:13;;;;;;;;;;;;;;;7.02;90.26;100917.03;4992579;28;852;-68
2022/10/06 04:48:39;;;;;;;;;;;;;;;7.08;90.67;100913.69;4992403;28;898;-70
2022/10/06 04:51:09;;;;;;;;;;;;;;;7.15;90.04;100913.88;4992532;28;858;-70
2022/10/06 04:53:36;;;;;;;;;;;;;;;7.27;89.59;100924.00;4992742;28;862;-70
2022/10/06 04:56:03;;;;;;;;;;;;;;;7.41;88.96;100922.78;4991415;28;1224;-68
2022/10/06 04:58:31;;;;;;;;;;;;;;;7.55;88.26;100917.63;4992338;28;795;-70
2022/10/06 05:00:58;;;;;;;;;;;;;;;7.70;86.97;100913.28;4991573;28;1894;-70
2022/10/06 05:32:15;;;;;;;;;;;;;;;9.11;79.67;100942.75;5835850;23;1693;-62
2022/10/06 05:34:41;;;;;;;;;;;;;;;9.31;78.91;100940.75;4953363;29;834;-61
2022/10/06 05:37:08;;;;;;;;;;;;;;;9.48;77.93;100945.81;4953318;28;831;-61
2022/10/06 05:39:35;;;;;;;;;;;;;;;9.66;77.10;100948.06;4953260;28;848;-61
2022/10/06 05:42:01;;;;;;;;;;;;;;;9.83;76.87;100942.06;4953175;28;1942;-61
2022/10/06 05:44:27;;;;;;;;;;;;;;;9.99;75.92;100937.19;4953206;28;906;-61
2022/10/06 05:46:54;;;;;;;;;;;;;;;10.09;75.28;100944.06;4953146;28;803;-61
2022/10/06 05:49:20;;;;;;;;;;;;;;;10.21;74.81;100946.59;4968028;28;1205;-61
2022/10/06 05:51:47;;;;;;;;;;;;;;;10.32;73.77;100949.53;4967962;28;1269;-61
2022/10/06 05:54:13;;;;;;;;;;;;;;;10.52;73.40;100950.22;4953111;28;895;-61
2022/10/06 05:56:40;;;;;;;;;;;;;;;10.62;72.61;100949.56;4953278;28;843;-61
2022/10/06 05:59:06;;;;;;;;;;;;;;;10.82;72.11;100952.97;4953062;28;855;-61
2022/10/06 06:01:34;;;;;;;;;;;;;;;10.98;71.63;100947.22;4953191;28;1954;-61
2022/10/06 06:04:03;;;;;;;;;;;;;;;11.22;71.49;100951.47;4953049;28;791;-61
2022/10/06 06:06:33;;;;;;;;;;;;;;;11.56;70.38;100953.38;4953070;28;836;-61
2022/10/06 06:09:05;;;;;;;;;;;;;;;12.04;68.33;100956.97;4952930;28;800;-61
2022/10/06 06:11:32;;;;;;;;;;;;;;;12.25;66.63;100945.25;4954368;28;810;-61
2022/10/06 06:14:02;;;;;;;;;;;;;;;12.26;66.57;100951.59;4956515;28;775;-61
2022/10/06 06:16:32;;;;;;;;;;;;;;;12.34;65.85;100953.22;4956375;29;844;-61
2022/10/06 06:18:59;;;;;;;;;;;;;;;12.45;65.90;100951.31;4956481;28;792;-61
2022/10/06 06:21:26;;;;;;;;;;;;;;;12.62;64.88;100951.81;4956329;28;1899;-61
2022/10/06 06:23:53;;;;;;;;;;;;;;;12.76;64.28;100957.44;4956327;28;866;-61
2022/10/06 06:26:24;;;;;;;;;;;;;;;12.87;63.97;100952.72;4956464;28;848;-61
2022/10/06 06:28:51;;;;;;;;;;;;;;;13.04;63.44;100953.19;4956270;28;878;-61
2022/10/06 06:31:26;;;;;;;;;;;;;;;13.28;62.57;100952.47;4956138;28;887;-61
2022/10/06 06:33:54;;;;;;;;;;;;;;;13.54;61.32;100949.75;4986755;28;1234;-61
2022/10/06 06:36:25;;;;;;;;;;;;;;;13.81;60.63;100947.38;4995002;28;823;-61
2022/10/06 06:38:53;;;;;;;;;;;;;;;14.15;60.07;100944.19;4994937;28;866;-61
2022/10/06 06:41:23;;;;;;;;;;;;;;;14.67;58.15;100947.25;4994758;28;1977;-61
2022/10/06 06:43:51;;;;;;;;;;;;;;;15.05;56.42;100939.94;4994697;28;885;-61
2022/10/06 06:46:19;;;;;;;;;;;;;;;15.91;54.30;100935.78;4994648;28;878;-60
2022/10/06 06:48:46;;;;;;;;;;;;;;;16.79;51.56;100940.88;4994634;28;787;-61
2022/10/06 06:51:12;;;;;;;;;;;;;;;16.99;50.15;100938.25;4994571;28;882;-61
2022/10/06 06:53:39;;;;;;;;;;;;;;;16.92;49.95;100936.34;4977004;28;1308;-61
2022/10/06 06:56:07;;;;;;;;;;;;;;;17.02;49.38;100933.81;4994475;28;799;-61
2022/10/06 06:58:34;;;;;;;;;;;;;;;17.17;48.70;100929.59;4994469;28;791;-61
2022/10/06 07:01:06;;;;;;;;;;;;;;;17.37;47.97;100934.50;4994167;28;1890;-61
2022/10/06 07:03:33;;;;;;;;;;;;;;;17.48;48.09;100932.34;4994361;28;894;-61
2022/10/06 07:06:07;;;;;;;;;;;;;;;18.17;46.59;100930.81;4994354;28;799;-61
2022/10/06 07:08:35;;;;;;;;;;;;;;;19.06;44.68;100918.28;4994302;28;815;-61
2022/10/06 07:11:19;;;;;;;;;;;;;;;19.94;42.36;100925.81;4994217;28;850;-61
